Auburn, Michigan
Current Conditions -  °F | °C
As of 12:14 AM on Sunday 23 Nov 2014 (Local Time) from KMBS Reporting Station
Haze Haze  
Wind Chill: 42°   Ceiling: 2500
Heat Index: 46°   Visibility: 6mi
Dew Point: 43°   Wind: 8mph
Humidity: 89%   Direction: 230°SW
Pressure: 29.89"   Gusts: NA
Location:  43.6°N, 84.07°W
Report Text: KMBS 230514Z 23007KT 6SM BR SCT014 BKN025 OVC050 08/06 A2989 RMK AO2 T00780061
Loading
Personal Weather Stations






























Interactive Weather Map New forecast layout! Learn more

10-Day Weather Forecast

Advertisements
Track Severe Weather on mobile